sensor_id;sensor_type;location;lat;lon;timestamp;temperature;humidity
3542;DHT22;1785;47.388;8.538;2023-08-07T00:02:00;15.60;99.90
3542;DHT22;1785;47.388;8.538;2023-08-07T00:04:26;15.70;99.90
3542;DHT22;1785;47.388;8.538;2023-08-07T00:06:52;16.10;99.90
3542;DHT22;1785;47.388;8.538;2023-08-07T00:09:18;16.10;99.90
3542;DHT22;1785;47.388;8.538;2023-08-07T00:11:44;16.00;99.90
3542;DHT22;1785;47.388;8.538;2023-08-07T00:14:10;15.90;99.90
3542;DHT22;1785;47.388;8.538;2023-08-07T00:16:36;15.80;99.90
3542;DHT22;1785;47.388;8.538;2023-08-07T00:19:02;16.00;99.90
3542;DHT22;1785;47.388;8.538;2023-08-07T00:21:29;16.00;99.90
3542;DHT22;1785;47.388;8.538;2023-08-07T00:23:55;16.00;99.90
3542;DHT22;1785;47.388;8.538;2023-08-07T00:26:21;15.80;99.90
3542;DHT22;1785;47.388;8.538;2023-08-07T00:28:47;15.60;99.90
3542;DHT22;1785;47.388;8.538;2023-08-07T00:31:13;15.60;99.90
3542;DHT22;1785;47.388;8.538;2023-08-07T00:33:39;15.50;99.90
3542;DHT22;1785;47.388;8.538;2023-08-07T00:36:05;15.50;99.90
3542;DHT22;1785;47.388;8.538;2023-08-07T00:38:31;15.50;99.90
3542;DHT22;1785;47.388;8.538;2023-08-07T00:40:58;15.50;99.90
3542;DHT22;1785;47.388;8.538;2023-08-07T00:43:25;15.60;99.90
3542;DHT22;1785;47.388;8.538;2023-08-07T00:45:51;15.40;99.90
3542;DHT22;1785;47.388;8.538;2023-08-07T00:48:17;15.40;99.90
3542;DHT22;1785;47.388;8.538;2023-08-07T00:50:46;15.60;99.90
3542;DHT22;1785;47.388;8.538;2023-08-07T00:53:12;15.60;99.90
3542;DHT22;1785;47.388;8.538;2023-08-07T00:55:44;15.50;99.90
3542;DHT22;1785;47.388;8.538;2023-08-07T00:58:11;15.60;99.90
3542;DHT22;1785;47.388;8.538;2023-08-07T01:00:37;15.60;99.90
3542;DHT22;1785;47.388;8.538;2023-08-07T01:03:05;15.60;99.90
3542;DHT22;1785;47.388;8.538;2023-08-07T01:05:31;15.60;99.90
3542;DHT22;1785;47.388;8.538;2023-08-07T01:07:58;15.80;99.90
3542;DHT22;1785;47.388;8.538;2023-08-07T01:10:30;15.90;99.90
3542;DHT22;1785;47.388;8.538;2023-08-07T01:13:03;16.00;99.90
3542;DHT22;1785;47.388;8.538;2023-08-07T01:15:32;15.90;99.90
3542;DHT22;1785;47.388;8.538;2023-08-07T01:18:00;15.90;99.90
3542;DHT22;1785;47.388;8.538;2023-08-07T01:20:26;15.70;99.90
3542;DHT22;1785;47.388;8.538;2023-08-07T01:22:52;15.80;99.90
3542;DHT22;1785;47.388;8.538;2023-08-07T01:25:18;15.50;99.90
3542;DHT22;1785;47.388;8.538;2023-08-07T01:27:50;15.60;99.90
3542;DHT22;1785;47.388;8.538;2023-08-07T01:30:22;15.50;99.90
3542;DHT22;1785;47.388;8.538;2023-08-07T01:32:59;15.70;99.90
3542;DHT22;1785;47.388;8.538;2023-08-07T01:35:29;15.70;99.90
3542;DHT22;1785;47.388;8.538;2023-08-07T01:37:57;15.50;99.90
3542;DHT22;1785;47.388;8.538;2023-08-07T01:40:24;15.30;99.90
3542;DHT22;1785;47.388;8.538;2023-08-07T01:42:50;15.30;99.90
3542;DHT22;1785;47.388;8.538;2023-08-07T01:45:22;15.50;99.90
3542;DHT22;1785;47.388;8.538;2023-08-07T01:47:49;15.30;99.90
3542;DHT22;1785;47.388;8.538;2023-08-07T01:50:15;15.50;99.90
3542;DHT22;1785;47.388;8.538;2023-08-07T01:52:41;15.60;99.90
3542;DHT22;1785;47.388;8.538;2023-08-07T01:55:08;15.50;99.90
3542;DHT22;1785;47.388;8.538;2023-08-07T01:57:34;15.70;99.90
3542;DHT22;1785;47.388;8.538;2023-08-07T02:00:00;15.70;99.90
3542;DHT22;1785;47.388;8.538;2023-08-07T02:02:26;15.80;99.90
3542;DHT22;1785;47.388;8.538;2023-08-07T02:04:52;15.60;99.90
3542;DHT22;1785;47.388;8.538;2023-08-07T02:07:18;15.80;99.90
3542;DHT22;1785;47.388;8.538;2023-08-07T02:09:44;15.80;99.90
3542;DHT22;1785;47.388;8.538;2023-08-07T02:12:11;15.50;99.90
3542;DHT22;1785;47.388;8.538;2023-08-07T02:14:37;15.10;99.90
3542;DHT22;1785;47.388;8.538;2023-08-07T02:17:03;14.80;99.90
3542;DHT22;1785;47.388;8.538;2023-08-07T02:19:29;14.90;99.90
3542;DHT22;1785;47.388;8.538;2023-08-07T02:21:56;14.70;99.90
3542;DHT22;1785;47.388;8.538;2023-08-07T02:24:22;14.80;99.90
3542;DHT22;1785;47.388;8.538;2023-08-07T02:26:48;14.70;99.90
3542;DHT22;1785;47.388;8.538;2023-08-07T02:29:14;14.70;99.90
3542;DHT22;1785;47.388;8.538;2023-08-07T02:31:40;14.70;99.90
3542;DHT22;1785;47.388;8.538;2023-08-07T02:34:06;14.60;99.90
3542;DHT22;1785;47.388;8.538;2023-08-07T02:36:32;14.80;99.90
3542;DHT22;1785;47.388;8.538;2023-08-07T02:38:59;14.90;99.90
3542;DHT22;1785;47.388;8.538;2023-08-07T02:41:25;14.80;99.90
3542;DHT22;1785;47.388;8.538;2023-08-07T02:43:51;14.60;99.90
3542;DHT22;1785;47.388;8.538;2023-08-07T02:46:17;14.60;99.90
3542;DHT22;1785;47.388;8.538;2023-08-07T02:48:43;14.70;99.90
3542;DHT22;1785;47.388;8.538;2023-08-07T02:51:10;14.70;99.90
3542;DHT22;1785;47.388;8.538;2023-08-07T02:53:36;14.70;99.90
3542;DHT22;1785;47.388;8.538;2023-08-07T02:56:05;14.60;99.90
3542;DHT22;1785;47.388;8.538;2023-08-07T02:58:31;14.60;99.90
3542;DHT22;1785;47.388;8.538;2023-08-07T03:01:03;14.60;99.90
3542;DHT22;1785;47.388;8.538;2023-08-07T03:03:29;14.70;99.90
3542;DHT22;1785;47.388;8.538;2023-08-07T03:05:55;14.70;99.90
3542;DHT22;1785;47.388;8.538;2023-08-07T03:08:21;14.60;99.90
3542;DHT22;1785;47.388;8.538;2023-08-07T03:10:52;14.60;99.90
3542;DHT22;1785;47.388;8.538;2023-08-07T03:13:19;14.70;99.90
3542;DHT22;1785;47.388;8.538;2023-08-07T03:15:45;14.70;99.90
3542;DHT22;1785;47.388;8.538;2023-08-07T03:18:11;14.70;99.90
3542;DHT22;1785;47.388;8.538;2023-08-07T03:20:37;14.70;99.90
3542;DHT22;1785;47.388;8.538;2023-08-07T03:23:03;14.80;99.90
3542;DHT22;1785;47.388;8.538;2023-08-07T03:25:29;14.70;99.90
3542;DHT22;1785;47.388;8.538;2023-08-07T03:27:55;14.80;99.90
3542;DHT22;1785;47.388;8.538;2023-08-07T03:30:21;14.90;99.90
3542;DHT22;1785;47.388;8.538;2023-08-07T03:32:48;14.60;99.90
3542;DHT22;1785;47.388;8.538;2023-08-07T03:35:14;14.70;99.90
3542;DHT22;1785;47.388;8.538;2023-08-07T03:37:40;14.80;99.90
3542;DHT22;1785;47.388;8.538;2023-08-07T03:40:07;14.60;99.90
3542;DHT22;1785;47.388;8.538;2023-08-07T03:42:33;14.60;99.90
3542;DHT22;1785;47.388;8.538;2023-08-07T03:44:59;14.60;99.90
3542;DHT22;1785;47.388;8.538;2023-08-07T03:47:25;14.80;99.90
3542;DHT22;1785;47.388;8.538;2023-08-07T03:49:51;14.80;99.90
3542;DHT22;1785;47.388;8.538;2023-08-07T03:52:17;14.30;99.90
3542;DHT22;1785;47.388;8.538;2023-08-07T03:54:44;14.40;99.90
3542;DHT22;1785;47.388;8.538;2023-08-07T03:57:10;14.50;99.90
3542;DHT22;1785;47.388;8.538;2023-08-07T03:59:36;14.60;99.90
3542;DHT22;1785;47.388;8.538;2023-08-07T04:02:03;14.50;99.90
3542;DHT22;1785;47.388;8.538;2023-08-07T04:04:29;14.50;99.90
3542;DHT22;1785;47.388;8.538;2023-08-07T04:06:55;14.70;99.90
3542;DHT22;1785;47.388;8.538;2023-08-07T04:09:21;14.80;99.90
3542;DHT22;1785;47.388;8.538;2023-08-07T04:11:48;14.50;99.90
3542;DHT22;1785;47.388;8.538;2023-08-07T04:14:14;14.40;99.90
3542;DHT22;1785;47.388;8.538;2023-08-07T04:16:40;14.50;99.90
3542;DHT22;1785;47.388;8.538;2023-08-07T04:19:06;14.70;99.90
3542;DHT22;1785;47.388;8.538;2023-08-07T04:21:33;14.60;99.90
3542;DHT22;1785;47.388;8.538;2023-08-07T04:23:59;14.70;99.90
3542;DHT22;1785;47.388;8.538;2023-08-07T04:26:25;14.70;99.90
3542;DHT22;1785;47.388;8.538;2023-08-07T04:28:52;14.70;99.90
3542;DHT22;1785;47.388;8.538;2023-08-07T04:31:18;14.70;99.90
3542;DHT22;1785;47.388;8.538;2023-08-07T04:33:44;14.90;99.90
3542;DHT22;1785;47.388;8.538;2023-08-07T04:36:10;15.10;99.90
3542;DHT22;1785;47.388;8.538;2023-08-07T04:38:36;15.00;99.90
3542;DHT22;1785;47.388;8.538;2023-08-07T04:41:02;14.80;99.90
3542;DHT22;1785;47.388;8.538;2023-08-07T04:43:29;14.80;99.90
3542;DHT22;1785;47.388;8.538;2023-08-07T04:45:55;15.00;99.90
3542;DHT22;1785;47.388;8.538;2023-08-07T04:48:21;15.20;99.90
3542;DHT22;1785;47.388;8.538;2023-08-07T04:50:50;15.40;99.90
3542;DHT22;1785;47.388;8.538;2023-08-07T04:53:16;15.30;99.90
3542;DHT22;1785;47.388;8.538;2023-08-07T04:55:42;15.20;99.90
3542;DHT22;1785;47.388;8.538;2023-08-07T04:58:08;15.00;99.90
3542;DHT22;1785;47.388;8.538;2023-08-07T05:00:35;15.00;99.90
3542;DHT22;1785;47.388;8.538;2023-08-07T05:03:02;14.80;99.90
3542;DHT22;1785;47.388;8.538;2023-08-07T05:05:29;14.80;99.90
3542;DHT22;1785;47.388;8.538;2023-08-07T05:07:57;15.10;99.90
3542;DHT22;1785;47.388;8.538;2023-08-07T05:10:23;15.20;99.90
3542;DHT22;1785;47.388;8.538;2023-08-07T05:12:49;15.20;99.90
3542;DHT22;1785;47.388;8.538;2023-08-07T05:15:20;15.20;99.90
3542;DHT22;1785;47.388;8.538;2023-08-07T05:17:46;15.20;99.90
3542;DHT22;1785;47.388;8.538;2023-08-07T05:20:13;15.50;99.90
3542;DHT22;1785;47.388;8.538;2023-08-07T05:22:39;15.20;99.90
3542;DHT22;1785;47.388;8.538;2023-08-07T05:25:05;14.90;99.90
3542;DHT22;1785;47.388;8.538;2023-08-07T05:27:32;14.60;99.90
3542;DHT22;1785;47.388;8.538;2023-08-07T05:29:59;14.50;99.90
3542;DHT22;1785;47.388;8.538;2023-08-07T05:32:25;14.50;99.90
3542;DHT22;1785;47.388;8.538;2023-08-07T05:34:52;14.50;99.90
3542;DHT22;1785;47.388;8.538;2023-08-07T05:37:18;14.60;99.90
3542;DHT22;1785;47.388;8.538;2023-08-07T05:39:44;14.60;99.90
3542;DHT22;1785;47.388;8.538;2023-08-07T05:42:10;14.60;99.90
3542;DHT22;1785;47.388;8.538;2023-08-07T05:44:37;14.70;99.90
3542;DHT22;1785;47.388;8.538;2023-08-07T05:47:04;14.80;99.90
3542;DHT22;1785;47.388;8.538;2023-08-07T05:49:30;14.90;99.90
3542;DHT22;1785;47.388;8.538;2023-08-07T05:51:57;15.10;99.90
3542;DHT22;1785;47.388;8.538;2023-08-07T05:54:23;15.10;99.90
3542;DHT22;1785;47.388;8.538;2023-08-07T05:56:49;15.20;99.90
3542;DHT22;1785;47.388;8.538;2023-08-07T05:59:15;15.40;99.90
3542;DHT22;1785;47.388;8.538;2023-08-07T06:01:41;15.20;99.90
3542;DHT22;1785;47.388;8.538;2023-08-07T06:04:07;15.00;99.90
3542;DHT22;1785;47.388;8.538;2023-08-07T06:06:34;14.80;99.90
3542;DHT22;1785;47.388;8.538;2023-08-07T06:09:01;14.90;99.90
3542;DHT22;1785;47.388;8.538;2023-08-07T06:11:28;14.70;99.90
3542;DHT22;1785;47.388;8.538;2023-08-07T06:13:54;14.80;99.90
3542;DHT22;1785;47.388;8.538;2023-08-07T06:16:20;15.20;99.90
3542;DHT22;1785;47.388;8.538;2023-08-07T06:18:46;15.40;99.90
3542;DHT22;1785;47.388;8.538;2023-08-07T06:21:12;15.70;99.90
3542;DHT22;1785;47.388;8.538;2023-08-07T06:23:38;15.50;99.90
3542;DHT22;1785;47.388;8.538;2023-08-07T06:26:04;15.30;99.90
3542;DHT22;1785;47.388;8.538;2023-08-07T06:28:34;15.10;99.90
3542;DHT22;1785;47.388;8.538;2023-08-07T06:31:01;15.00;99.90
3542;DHT22;1785;47.388;8.538;2023-08-07T06:33:27;15.30;99.90
3542;DHT22;1785;47.388;8.538;2023-08-07T06:35:53;15.10;99.90
3542;DHT22;1785;47.388;8.538;2023-08-07T06:38:19;15.30;99.90
3542;DHT22;1785;47.388;8.538;2023-08-07T06:40:45;15.20;99.90
3542;DHT22;1785;47.388;8.538;2023-08-07T06:43:11;15.30;99.90
3542;DHT22;1785;47.388;8.538;2023-08-07T06:45:38;15.20;99.90
3542;DHT22;1785;47.388;8.538;2023-08-07T06:48:04;15.20;99.90
3542;DHT22;1785;47.388;8.538;2023-08-07T06:50:30;14.80;99.90
3542;DHT22;1785;47.388;8.538;2023-08-07T06:52:56;14.50;99.90
3542;DHT22;1785;47.388;8.538;2023-08-07T06:55:23;14.60;99.90
3542;DHT22;1785;47.388;8.538;2023-08-07T06:57:49;14.70;99.90
3542;DHT22;1785;47.388;8.538;2023-08-07T07:00:15;15.00;99.90
3542;DHT22;1785;47.388;8.538;2023-08-07T07:02:42;15.00;99.90
3542;DHT22;1785;47.388;8.538;2023-08-07T07:05:08;14.80;99.90
3542;DHT22;1785;47.388;8.538;2023-08-07T07:07:34;14.70;99.90
3542;DHT22;1785;47.388;8.538;2023-08-07T07:10:01;14.90;99.90
3542;DHT22;1785;47.388;8.538;2023-08-07T07:12:27;15.00;99.90
3542;DHT22;1785;47.388;8.538;2023-08-07T07:14:53;15.10;99.90
3542;DHT22;1785;47.388;8.538;2023-08-07T07:17:19;15.10;99.90
3542;DHT22;1785;47.388;8.538;2023-08-07T07:19:46;15.20;99.90
3542;DHT22;1785;47.388;8.538;2023-08-07T07:22:12;15.40;99.90
3542;DHT22;1785;47.388;8.538;2023-08-07T07:24:38;15.50;99.90
3542;DHT22;1785;47.388;8.538;2023-08-07T07:27:05;15.50;99.90
3542;DHT22;1785;47.388;8.538;2023-08-07T07:29:31;15.20;99.90
3542;DHT22;1785;47.388;8.538;2023-08-07T07:31:57;15.20;99.90
3542;DHT22;1785;47.388;8.538;2023-08-07T07:34:23;15.10;99.90
3542;DHT22;1785;47.388;8.538;2023-08-07T07:36:50;15.00;99.90
3542;DHT22;1785;47.388;8.538;2023-08-07T07:39:17;15.10;99.90
3542;DHT22;1785;47.388;8.538;2023-08-07T07:41:43;15.10;99.90
3542;DHT22;1785;47.388;8.538;2023-08-07T07:44:10;15.20;99.90
3542;DHT22;1785;47.388;8.538;2023-08-07T07:46:36;15.60;99.90
3542;DHT22;1785;47.388;8.538;2023-08-07T07:49:02;15.60;99.90
3542;DHT22;1785;47.388;8.538;2023-08-07T07:51:30;15.40;99.90
3542;DHT22;1785;47.388;8.538;2023-08-07T07:53:58;15.50;99.90
3542;DHT22;1785;47.388;8.538;2023-08-07T07:56:24;15.40;99.90
3542;DHT22;1785;47.388;8.538;2023-08-07T07:58:50;15.70;99.90
3542;DHT22;1785;47.388;8.538;2023-08-07T08:01:16;15.80;99.90
3542;DHT22;1785;47.388;8.538;2023-08-07T08:03:43;15.70;99.90
3542;DHT22;1785;47.388;8.538;2023-08-07T08:06:11;15.50;99.90
3542;DHT22;1785;47.388;8.538;2023-08-07T08:08:37;15.40;99.90
3542;DHT22;1785;47.388;8.538;2023-08-07T08:11:04;15.30;99.90
3542;DHT22;1785;47.388;8.538;2023-08-07T08:13:30;15.20;99.90
3542;DHT22;1785;47.388;8.538;2023-08-07T08:15:56;14.90;99.90
3542;DHT22;1785;47.388;8.538;2023-08-07T08:18:22;14.90;99.90
3542;DHT22;1785;47.388;8.538;2023-08-07T08:20:48;14.90;99.90
3542;DHT22;1785;47.388;8.538;2023-08-07T08:23:14;14.80;99.90
3542;DHT22;1785;47.388;8.538;2023-08-07T08:25:40;14.90;99.90
3542;DHT22;1785;47.388;8.538;2023-08-07T08:28:06;15.00;99.90
3542;DHT22;1785;47.388;8.538;2023-08-07T08:30:32;15.10;99.90
3542;DHT22;1785;47.388;8.538;2023-08-07T08:32:58;15.20;99.90
3542;DHT22;1785;47.388;8.538;2023-08-07T08:35:24;15.20;99.90
3542;DHT22;1785;47.388;8.538;2023-08-07T08:37:51;15.10;99.90
3542;DHT22;1785;47.388;8.538;2023-08-07T08:40:17;14.90;99.90
3542;DHT22;1785;47.388;8.538;2023-08-07T08:42:45;14.80;99.90
3542;DHT22;1785;47.388;8.538;2023-08-07T08:45:14;14.80;99.90
3542;DHT22;1785;47.388;8.538;2023-08-07T08:47:41;14.60;99.90
3542;DHT22;1785;47.388;8.538;2023-08-07T08:50:08;14.70;99.90
3542;DHT22;1785;47.388;8.538;2023-08-07T08:52:36;14.90;99.90
3542;DHT22;1785;47.388;8.538;2023-08-07T08:55:04;14.70;99.90
3542;DHT22;1785;47.388;8.538;2023-08-07T08:57:30;14.90;99.90
3542;DHT22;1785;47.388;8.538;2023-08-07T08:59:59;15.10;99.90
3542;DHT22;1785;47.388;8.538;2023-08-07T09:02:26;15.00;99.90
3542;DHT22;1785;47.388;8.538;2023-08-07T09:04:53;14.90;99.90
3542;DHT22;1785;47.388;8.538;2023-08-07T09:07:20;15.10;99.90
3542;DHT22;1785;47.388;8.538;2023-08-07T09:09:46;15.00;99.90
3542;DHT22;1785;47.388;8.538;2023-08-07T09:12:20;15.10;99.90
3542;DHT22;1785;47.388;8.538;2023-08-07T09:14:54;15.20;99.90
3542;DHT22;1785;47.388;8.538;2023-08-07T09:17:22;15.20;99.90
3542;DHT22;1785;47.388;8.538;2023-08-07T09:19:50;15.10;99.90
3542;DHT22;1785;47.388;8.538;2023-08-07T09:22:16;15.10;99.90
3542;DHT22;1785;47.388;8.538;2023-08-07T09:24:42;15.00;99.90
3542;DHT22;1785;47.388;8.538;2023-08-07T09:27:09;15.10;99.90
3542;DHT22;1785;47.388;8.538;2023-08-07T09:29:35;15.40;99.90
3542;DHT22;1785;47.388;8.538;2023-08-07T09:32:07;15.40;99.90
3542;DHT22;1785;47.388;8.538;2023-08-07T09:34:33;15.40;99.90
3542;DHT22;1785;47.388;8.538;2023-08-07T09:37:01;15.60;99.90
3542;DHT22;1785;47.388;8.538;2023-08-07T09:39:27;15.80;99.90
3542;DHT22;1785;47.388;8.538;2023-08-07T09:41:55;16.20;99.90
3542;DHT22;1785;47.388;8.538;2023-08-07T09:44:21;16.30;99.90
3542;DHT22;1785;47.388;8.538;2023-08-07T09:46:47;16.10;99.90
3542;DHT22;1785;47.388;8.538;2023-08-07T09:49:13;16.20;99.90
3542;DHT22;1785;47.388;8.538;2023-08-07T09:51:43;16.00;99.90
3542;DHT22;1785;47.388;8.538;2023-08-07T09:54:10;16.10;99.90
3542;DHT22;1785;47.388;8.538;2023-08-07T09:56:37;16.60;99.90
3542;DHT22;1785;47.388;8.538;2023-08-07T09:59:04;16.70;99.90
3542;DHT22;1785;47.388;8.538;2023-08-07T10:01:30;16.60;99.90
3542;DHT22;1785;47.388;8.538;2023-08-07T10:03:56;16.70;99.90
3542;DHT22;1785;47.388;8.538;2023-08-07T10:06:23;16.40;99.90
3542;DHT22;1785;47.388;8.538;2023-08-07T10:08:49;16.40;99.90
3542;DHT22;1785;47.388;8.538;2023-08-07T10:11:16;16.20;99.90
3542;DHT22;1785;47.388;8.538;2023-08-07T10:13:43;16.10;99.90
3542;DHT22;1785;47.388;8.538;2023-08-07T10:16:11;16.10;99.90
3542;DHT22;1785;47.388;8.538;2023-08-07T10:18:37;16.50;99.90
3542;DHT22;1785;47.388;8.538;2023-08-07T10:21:05;16.40;99.90
3542;DHT22;1785;47.388;8.538;2023-08-07T10:23:32;16.60;99.90
3542;DHT22;1785;47.388;8.538;2023-08-07T10:26:00;16.70;99.90
3542;DHT22;1785;47.388;8.538;2023-08-07T10:28:27;16.80;99.90
3542;DHT22;1785;47.388;8.538;2023-08-07T10:30:54;16.70;99.90
3542;DHT22;1785;47.388;8.538;2023-08-07T10:33:21;16.70;99.90
3542;DHT22;1785;47.388;8.538;2023-08-07T10:35:48;16.80;99.90
3542;DHT22;1785;47.388;8.538;2023-08-07T10:38:14;16.60;99.90
3542;DHT22;1785;47.388;8.538;2023-08-07T10:41:00;16.60;99.90
3542;DHT22;1785;47.388;8.538;2023-08-07T10:43:27;16.90;99.90
3542;DHT22;1785;47.388;8.538;2023-08-07T10:45:54;16.70;99.90
3542;DHT22;1785;47.388;8.538;2023-08-07T10:48:21;16.90;99.90
3542;DHT22;1785;47.388;8.538;2023-08-07T10:50:50;16.90;99.90
3542;DHT22;1785;47.388;8.538;2023-08-07T10:53:20;16.70;99.90
3542;DHT22;1785;47.388;8.538;2023-08-07T10:55:47;16.50;99.90
3542;DHT22;1785;47.388;8.538;2023-08-07T10:58:24;16.60;99.90
3542;DHT22;1785;47.388;8.538;2023-08-07T11:03:35;17.10;99.90
3542;DHT22;1785;47.388;8.538;2023-08-07T11:06:02;17.30;99.90
3542;DHT22;1785;47.388;8.538;2023-08-07T11:08:29;17.30;99.90
3542;DHT22;1785;47.388;8.538;2023-08-07T11:10:56;17.30;99.90
3542;DHT22;1785;47.388;8.538;2023-08-07T11:13:23;17.20;99.90
3542;DHT22;1785;47.388;8.538;2023-08-07T11:15:50;16.80;99.90
3542;DHT22;1785;47.388;8.538;2023-08-07T11:18:17;16.70;99.90
3542;DHT22;1785;47.388;8.538;2023-08-07T11:20:44;16.70;99.90
3542;DHT22;1785;47.388;8.538;2023-08-07T11:23:11;16.70;99.90
3542;DHT22;1785;47.388;8.538;2023-08-07T11:25:37;16.80;99.90
3542;DHT22;1785;47.388;8.538;2023-08-07T11:28:03;16.90;99.90
3542;DHT22;1785;47.388;8.538;2023-08-07T11:30:30;17.20;99.90
3542;DHT22;1785;47.388;8.538;2023-08-07T11:32:56;17.20;99.90
3542;DHT22;1785;47.388;8.538;2023-08-07T11:35:23;17.00;99.90
3542;DHT22;1785;47.388;8.538;2023-08-07T11:37:49;17.00;99.90
3542;DHT22;1785;47.388;8.538;2023-08-07T11:40:16;16.80;99.90
3542;DHT22;1785;47.388;8.538;2023-08-07T11:42:42;16.90;99.90
3542;DHT22;1785;47.388;8.538;2023-08-07T11:45:08;17.00;99.90
3542;DHT22;1785;47.388;8.538;2023-08-07T11:47:34;17.10;99.90
3542;DHT22;1785;47.388;8.538;2023-08-07T11:50:02;17.00;99.90
3542;DHT22;1785;47.388;8.538;2023-08-07T11:52:29;17.20;99.90
3542;DHT22;1785;47.388;8.538;2023-08-07T11:54:55;17.40;99.90
3542;DHT22;1785;47.388;8.538;2023-08-07T11:57:21;17.50;99.90
3542;DHT22;1785;47.388;8.538;2023-08-07T11:59:50;17.40;99.90
3542;DHT22;1785;47.388;8.538;2023-08-07T12:02:16;17.40;99.90
3542;DHT22;1785;47.388;8.538;2023-08-07T12:04:43;17.50;99.90
3542;DHT22;1785;47.388;8.538;2023-08-07T12:07:09;17.70;99.90
3542;DHT22;1785;47.388;8.538;2023-08-07T12:09:37;17.80;99.90
3542;DHT22;1785;47.388;8.538;2023-08-07T12:12:04;17.70;99.90
3542;DHT22;1785;47.388;8.538;2023-08-07T12:14:31;17.70;99.90
3542;DHT22;1785;47.388;8.538;2023-08-07T12:16:57;17.90;99.90
3542;DHT22;1785;47.388;8.538;2023-08-07T12:19:23;18.00;99.90
3542;DHT22;1785;47.388;8.538;2023-08-07T12:21:49;18.00;99.90
3542;DHT22;1785;47.388;8.538;2023-08-07T12:24:15;17.90;99.90
3542;DHT22;1785;47.388;8.538;2023-08-07T12:26:44;17.90;99.90
3542;DHT22;1785;47.388;8.538;2023-08-07T12:29:10;18.30;99.90
3542;DHT22;1785;47.388;8.538;2023-08-07T12:31:36;18.40;99.90
3542;DHT22;1785;47.388;8.538;2023-08-07T12:34:02;18.60;99.90
3542;DHT22;1785;47.388;8.538;2023-08-07T12:36:28;18.70;99.90
3542;DHT22;1785;47.388;8.538;2023-08-07T12:38:54;18.90;99.90
3542;DHT22;1785;47.388;8.538;2023-08-07T12:41:20;18.60;99.90
3542;DHT22;1785;47.388;8.538;2023-08-07T12:43:47;18.70;99.90
3542;DHT22;1785;47.388;8.538;2023-08-07T12:46:13;18.60;99.90
3542;DHT22;1785;47.388;8.538;2023-08-07T12:48:39;18.40;99.90
3542;DHT22;1785;47.388;8.538;2023-08-07T12:51:05;18.00;99.90
3542;DHT22;1785;47.388;8.538;2023-08-07T12:53:31;17.40;99.90
3542;DHT22;1785;47.388;8.538;2023-08-07T12:55:57;17.10;99.90
3542;DHT22;1785;47.388;8.538;2023-08-07T12:58:23;17.40;99.90
3542;DHT22;1785;47.388;8.538;2023-08-07T13:00:52;17.70;99.90
3542;DHT22;1785;47.388;8.538;2023-08-07T13:03:18;17.90;99.90
3542;DHT22;1785;47.388;8.538;2023-08-07T13:05:44;17.80;99.90
3542;DHT22;1785;47.388;8.538;2023-08-07T13:08:10;18.00;99.90
3542;DHT22;1785;47.388;8.538;2023-08-07T13:10:36;18.30;99.90
3542;DHT22;1785;47.388;8.538;2023-08-07T13:13:02;18.40;99.90
3542;DHT22;1785;47.388;8.538;2023-08-07T13:15:30;18.90;99.90
3542;DHT22;1785;47.388;8.538;2023-08-07T13:17:57;19.30;99.90
3542;DHT22;1785;47.388;8.538;2023-08-07T13:20:23;19.50;99.90
3542;DHT22;1785;47.388;8.538;2023-08-07T13:22:49;19.20;99.90
3542;DHT22;1785;47.388;8.538;2023-08-07T13:25:15;19.30;99.90
3542;DHT22;1785;47.388;8.538;2023-08-07T13:27:41;19.30;99.90
3542;DHT22;1785;47.388;8.538;2023-08-07T13:30:08;19.10;99.90
3542;DHT22;1785;47.388;8.538;2023-08-07T13:32:34;19.10;99.90
3542;DHT22;1785;47.388;8.538;2023-08-07T13:35:01;19.40;99.90
3542;DHT22;1785;47.388;8.538;2023-08-07T13:37:28;19.60;99.90
3542;DHT22;1785;47.388;8.538;2023-08-07T13:39:54;19.80;99.90
3542;DHT22;1785;47.388;8.538;2023-08-07T13:42:23;19.50;99.90
3542;DHT22;1785;47.388;8.538;2023-08-07T13:44:50;19.60;99.90
3542;DHT22;1785;47.388;8.538;2023-08-07T13:47:16;19.60;99.90
3542;DHT22;1785;47.388;8.538;2023-08-07T13:49:43;19.70;99.90
3542;DHT22;1785;47.388;8.538;2023-08-07T13:52:10;19.50;99.90
3542;DHT22;1785;47.388;8.538;2023-08-07T13:54:36;19.40;99.90
3542;DHT22;1785;47.388;8.538;2023-08-07T13:57:02;18.90;99.90
3542;DHT22;1785;47.388;8.538;2023-08-07T13:59:28;18.40;99.90
3542;DHT22;1785;47.388;8.538;2023-08-07T14:01:54;17.80;99.90
3542;DHT22;1785;47.388;8.538;2023-08-07T14:04:21;17.50;99.90
3542;DHT22;1785;47.388;8.538;2023-08-07T14:06:47;17.30;99.90
3542;DHT22;1785;47.388;8.538;2023-08-07T14:09:14;17.60;99.90
3542;DHT22;1785;47.388;8.538;2023-08-07T14:11:40;18.00;99.90
3542;DHT22;1785;47.388;8.538;2023-08-07T14:14:06;18.60;99.90
3542;DHT22;1785;47.388;8.538;2023-08-07T14:16:32;18.80;99.90
3542;DHT22;1785;47.388;8.538;2023-08-07T14:18:59;18.70;99.90
3542;DHT22;1785;47.388;8.538;2023-08-07T14:21:25;18.70;99.90
3542;DHT22;1785;47.388;8.538;2023-08-07T14:23:51;18.50;99.90
3542;DHT22;1785;47.388;8.538;2023-08-07T14:26:17;18.40;99.90
3542;DHT22;1785;47.388;8.538;2023-08-07T14:28:46;18.50;99.90
3542;DHT22;1785;47.388;8.538;2023-08-07T14:31:12;18.90;99.90
3542;DHT22;1785;47.388;8.538;2023-08-07T14:33:38;19.10;99.90
3542;DHT22;1785;47.388;8.538;2023-08-07T14:36:04;19.30;99.90
3542;DHT22;1785;47.388;8.538;2023-08-07T14:38:30;19.50;99.90
3542;DHT22;1785;47.388;8.538;2023-08-07T14:40:57;19.40;99.90
3542;DHT22;1785;47.388;8.538;2023-08-07T14:43:25;19.40;99.90
3542;DHT22;1785;47.388;8.538;2023-08-07T14:45:54;19.20;99.90
3542;DHT22;1785;47.388;8.538;2023-08-07T14:48:20;19.00;99.90
3542;DHT22;1785;47.388;8.538;2023-08-07T14:50:47;18.80;99.90
3542;DHT22;1785;47.388;8.538;2023-08-07T14:53:13;19.00;99.90
3542;DHT22;1785;47.388;8.538;2023-08-07T14:55:39;19.20;99.90
3542;DHT22;1785;47.388;8.538;2023-08-07T14:58:05;19.50;99.90
3542;DHT22;1785;47.388;8.538;2023-08-07T15:00:32;19.70;99.90
3542;DHT22;1785;47.388;8.538;2023-08-07T15:02:58;19.90;99.90
3542;DHT22;1785;47.388;8.538;2023-08-07T15:05:24;19.90;99.90
3542;DHT22;1785;47.388;8.538;2023-08-07T15:07:50;20.20;99.90
3542;DHT22;1785;47.388;8.538;2023-08-07T15:10:16;20.20;99.90
3542;DHT22;1785;47.388;8.538;2023-08-07T15:12:42;20.10;99.90
3542;DHT22;1785;47.388;8.538;2023-08-07T15:15:09;20.20;99.90
3542;DHT22;1785;47.388;8.538;2023-08-07T15:17:36;20.10;99.90
3542;DHT22;1785;47.388;8.538;2023-08-07T15:20:02;19.60;99.90
3542;DHT22;1785;47.388;8.538;2023-08-07T15:22:29;19.50;99.90
3542;DHT22;1785;47.388;8.538;2023-08-07T15:24:55;19.30;99.90
3542;DHT22;1785;47.388;8.538;2023-08-07T15:27:21;19.80;99.90
3542;DHT22;1785;47.388;8.538;2023-08-07T15:29:47;19.80;99.90
3542;DHT22;1785;47.388;8.538;2023-08-07T15:32:13;19.80;99.90
3542;DHT22;1785;47.388;8.538;2023-08-07T15:34:40;19.80;99.90
3542;DHT22;1785;47.388;8.538;2023-08-07T15:37:06;19.70;99.90
3542;DHT22;1785;47.388;8.538;2023-08-07T15:39:32;19.40;99.90
3542;DHT22;1785;47.388;8.538;2023-08-07T15:41:58;19.20;99.90
3542;DHT22;1785;47.388;8.538;2023-08-07T15:44:25;19.20;99.90
3542;DHT22;1785;47.388;8.538;2023-08-07T15:46:51;19.20;99.90
3542;DHT22;1785;47.388;8.538;2023-08-07T15:49:17;19.20;99.90
3542;DHT22;1785;47.388;8.538;2023-08-07T15:51:44;19.00;99.90
3542;DHT22;1785;47.388;8.538;2023-08-07T15:54:10;19.00;99.90
3542;DHT22;1785;47.388;8.538;2023-08-07T15:56:36;19.00;99.90
3542;DHT22;1785;47.388;8.538;2023-08-07T15:59:02;18.70;99.90
3542;DHT22;1785;47.388;8.538;2023-08-07T16:01:29;18.80;99.90